• Join FlightAware (Why Join?)
  • Login
  • US Flag 
12:07AM EDT


 

Airport Tracker/Info


-or-


 

Live Flight TrackerFlight Track Log ✈ SWA2383 ✈ 01-Jun-2013 ✈ KSNA - KSJC

Flight Track Log - Related Links

Times and Time Zones

All times are in EDT time to prevent confusion due to time zone crossing. See the SWA2383 flight status page for this flight to view local times or setup timezone preferences in your user account.

Time Position Orientation Groundspeed Altitude Reporting Facility
EDT Latitude Longitude Course Direction KTS MPH feet Rate Location/Type
08:08PM 33.6064 -117.8933 191° South 147 169 2,900  Level Los Angeles Center
08:09PM 33.5533 -117.9042 190° South 183 211 5,200 1,500 Climbing Los Angeles Center
08:10PM 33.5003 -117.9481 215° Southwest 221 254 6,000 1,140 Climbing Los Angeles Center
08:11PM 33.4456 -117.9953 216° Southwest 230 265 7,600 2,640 Climbing Los Angeles Center
08:12PM 33.4061 -118.0800 241° Southwest 290 334 11,500 3,360 Climbing Los Angeles Center
08:13PM 33.3967 -118.1914 264° West 325 374 14,500 3,360 Climbing Los Angeles Center
08:14PM 33.3839 -118.3139 263° West 357 411 18,400 3,420 Climbing Los Angeles Center
08:15PM 33.4286 -118.4222 296° West 380 437 21,600 3,180 Climbing Los Angeles Center
08:16PM 33.5236 -118.5386 314° West 398 458 25,000 2,820 Climbing Los Angeles Center
08:17PM 33.6056 -118.6422 314° West 415 478 27,500 2,340 Climbing Los Angeles Center
08:18PM 33.6914 -118.7467 315° West 429 494 29,800 2,100 Climbing Los Angeles Center
08:19PM 33.7783 -118.8542 314° West 444 511 31,900 2,280 Climbing Los Angeles Center
08:20PM 33.8639 -118.9606 314° West 444 511 34,500 2,220 Climbing Los Angeles Center
08:22PM 33.9472 -119.0656 314° West 436 502 36,500 1,920 Climbing Los Angeles Center
08:23PM 34.0300 -119.1689 314° West 431 496 38,500 1,560 Climbing Los Angeles Center
08:24PM 34.1106 -119.2697 314° West 422 486 39,800 720 Climbing Los Angeles Center
08:25PM 34.1906 -119.3700 314° West 417 480 40,000 60 Climbing Los Angeles Center
08:26PM 34.2544 -119.4506 314° West 416 479 40,000  Level Los Angeles Center
08:27PM 34.3667 -119.5922 314° West 417 480 40,000  Level Los Angeles Center
08:28PM 34.4461 -119.6947 313° West 417 480 40,000  Level Los Angeles Center
08:29PM 34.5286 -119.7939 315° West 419 482 40,000  Level Los Angeles Center
08:30PM 34.6350 -119.8739 328° Northwest 428 493 40,000  Level Los Angeles Center
08:31PM 34.7322 -119.9553 325° Northwest 424 488 40,000  Level Los Angeles Center
08:32PM 34.8297 -120.0358 326° Northwest 425 489 40,000  Level Los Angeles Center
08:33PM 34.9217 -120.1131 325° Northwest 422 486 40,000  Level Los Angeles Center
08:34PM 35.0386 -120.2094 326° Northwest 425 489 40,000  Level Los Angeles Center
08:35PM 35.1344 -120.2897 326° Northwest 424 488 40,000  Level Los Angeles Center
08:36PM 35.2308 -120.3697 326° Northwest 424 488 40,000  Level Los Angeles Center
08:37PM 35.3294 -120.4528 326° Northwest 446 513 40,000  Level Los Angeles Center
08:38PM 35.4233 -120.5356 324° Northwest 437 503 40,000  Level Los Angeles Center
08:39PM 35.5194 -120.6164 326° Northwest 426 490 40,000  Level Los Angeles Center
08:40PM 35.6147 -120.6961 326° Northwest 418 481 40,000  Level Los Angeles Center
08:40PM 35.6667 -120.7417 325° Northwest 413 475 40,000 -1,320 Level Oakland Center
08:41PM 35.7647 -120.8244 326° Northwest 423 487 38,100 -2,340 Descending Oakland Center
08:42PM 35.8594 -120.9050 325° Northwest 413 475 35,300 -3,000 Descending Oakland Center
08:43PM 35.9547 -120.9883 325° Northwest 419 482 32,100 -2,820 Descending Oakland Center
08:44PM 36.0528 -121.0714 326° Northwest 422 486 29,600 -2,460 Descending Oakland Center
08:46PM 36.1497 -121.1550 325° Northwest 423 487 27,100 -2,460 Descending Oakland Center
08:47PM 36.2425 -121.2364 325° Northwest 405 466 24,700 -2,340 Descending Oakland Center
08:48PM 36.3314 -121.3133 325° Northwest 389 448 22,400 -2,460 Descending Oakland Center
08:49PM 36.4333 -121.4031 325° Northwest 369 425 19,700 -2,640 Descending Oakland Center
08:50PM 36.5239 -121.4581 334° Northwest 355 409 17,100 -2,520 Descending Oakland Center
08:51PM 36.6275 -121.4739 353° North 364 419 14,600 -2,340 Descending Oakland Center
08:52PM 36.7242 -121.4956 350° North 352 405 12,400 -2,160 Descending Oakland Center
08:53PM 36.8172 -121.5183 349° North 341 392 10,300 -1,680 Descending Oakland Center
08:54PM 36.8989 -121.5436 346° North 325 374 9,100 -1,440 Descending Oakland Center
08:55PM 36.9728 -121.5958 331° Northwest 309 356 7,400 -1,500 Descending Oakland Center
08:56PM 37.0464 -121.6414 334° Northwest 298 343 6,100 -1,020 Descending Oakland Center
08:57PM 37.1153 -121.6847 333° Northwest 284 327 5,400 -720 Descending Oakland Center
08:57PM 37.1667 -121.7167 334° Northwest 248 285 4,900 -900 Descending Northern Cal TRACON
08:58PM 37.1778 -121.7250 329° Northwest 267 307 4,500 -1,440 Descending Oakland Center
08:59PM 37.2383 -121.7933 318° Northwest 252 290 3,000 -1,380 Descending Oakland Center
09:00PM 37.2803 -121.8406 318° Northwest 222 255 1,800 -960 Descending Oakland Center
09:01PM 37.3100 -121.8747 318° Northwest 174 200 1,100 -660 Descending Oakland Center
09:02PM 37.3364 -121.9036 319° Northwest 146 168 500 -600 Descending Oakland Center
09:05PM 37.3500 -121.9167 North  Level FlightAware Approximate